createdAt,value
2023-02-06T04:42:53.082Z,14.77
2023-02-06T04:45:20.264Z,19.67
2023-02-06T04:47:50.409Z,16.25
2023-02-06T04:50:26.151Z,17.90
2023-02-06T04:52:53.349Z,11.55
2023-02-06T04:55:21.006Z,14.85
2023-02-06T04:57:58.283Z,17.42
2023-02-06T05:00:32.151Z,15.00
2023-02-06T05:02:59.313Z,18.63
2023-02-06T05:05:35.363Z,14.93
2023-02-06T05:08:10.265Z,16.95
2023-02-06T05:10:48.110Z,10.67
2023-02-06T05:13:16.901Z,13.13
2023-02-06T05:15:44.356Z,14.93
2023-02-06T05:18:11.591Z,10.65
2023-02-06T05:20:45.451Z,12.25
2023-02-06T05:23:12.930Z,14.70
2023-02-06T05:25:50.892Z,16.15
2023-02-06T05:28:26.122Z,15.90
2023-02-06T05:31:00.225Z,17.88
2023-02-06T05:33:38.308Z,13.32
2023-02-06T05:36:12.284Z,19.52
2023-02-06T05:38:39.851Z,19.27
2023-02-06T05:41:07.139Z,16.40
2023-02-06T05:43:42.488Z,17.70
2023-02-06T05:46:11.481Z,19.00
2023-02-06T05:48:39.054Z,20.45
2023-02-06T05:51:18.541Z,26.65
2023-02-06T05:53:45.898Z,18.70
2023-02-06T05:56:16.871Z,29.48
2023-02-06T05:58:50.138Z,27.73
2023-02-06T06:01:17.543Z,26.25
2023-02-06T06:03:51.352Z,35.95
2023-02-06T06:06:18.979Z,31.85
2023-02-06T06:08:46.545Z,19.73
2023-02-06T06:11:13.795Z,26.05
2023-02-06T06:13:42.095Z,28.67
2023-02-06T06:16:27.646Z,35.20
2023-02-06T06:18:58.265Z,28.20
2023-02-06T06:21:25.628Z,28.35
2023-02-06T06:23:55.097Z,28.25
2023-02-06T06:26:31.229Z,21.53
2023-02-06T06:29:09.297Z,20.08
2023-02-06T06:31:45.265Z,26.20
2023-02-06T06:34:17.143Z,23.48
2023-02-06T06:36:44.624Z,29.92
2023-02-06T06:39:13.240Z,21.27
2023-02-06T06:41:54.413Z,25.05
2023-02-06T06:44:25.321Z,32.53
2023-02-06T06:49:34.184Z,26.25
2023-02-06T06:52:01.675Z,31.40
2023-02-06T06:54:37.215Z,31.50
2023-02-06T06:57:15.110Z,29.02
2023-02-06T06:59:53.343Z,37.05
2023-02-06T07:02:30.747Z,30.17
2023-02-06T07:04:58.124Z,29.45
2023-02-06T07:07:27.610Z,34.30
2023-02-06T07:10:10.127Z,35.75
2023-02-06T07:12:53.693Z,35.60
2023-02-06T07:15:38.885Z,33.93
2023-02-06T07:18:06.172Z,33.00
2023-02-06T07:24:06.318Z,30.93
2023-02-06T07:26:47.258Z,34.53
2023-02-06T07:31:56.934Z,33.60
2023-02-06T07:34:24.263Z,28.58
2023-02-06T07:37:00.013Z,25.95
2023-02-06T07:39:30.790Z,25.85
2023-02-06T07:42:00.771Z,31.00
2023-02-06T07:44:45.918Z,47.03
2023-02-06T07:47:13.122Z,37.35
2023-02-06T07:49:40.147Z,24.92
2023-02-06T07:54:58.537Z,31.85
2023-02-06T07:57:25.959Z,29.90
2023-02-06T08:00:05.616Z,33.72
2023-02-06T08:02:45.418Z,33.53
2023-02-06T08:05:13.064Z,34.20
2023-02-06T08:07:49.141Z,37.08
2023-02-06T08:10:16.642Z,36.63
2023-02-06T08:13:00.224Z,36.17
2023-02-06T08:15:28.154Z,35.78
2023-02-06T08:17:58.379Z,33.28
2023-02-06T08:20:39.167Z,31.50
2023-02-06T08:26:11.165Z,38.03
2023-02-06T08:28:45.274Z,38.10
2023-02-06T08:31:26.611Z,36.05
2023-02-06T08:33:56.216Z,26.52
2023-02-06T08:36:24.732Z,30.33
2023-02-06T08:38:53.451Z,39.08
